Latest Coastal Weather Observations for Eucla

IDS60701

Issued at 10:31 am CST Friday 31 July 2015 (issued every 10 minutes, with the page automatically refreshed every 10 minutes)

About coastal observations | Map of coastal stations | Coastal observations for SA | Marine services | Other Formats
Station Details ID: 011003 Name: EUCLA Lat: -31.68 Lon: 128.90 Height: 93.1 m
Data from the previous 72 hours. | See also: Recent months at Eucla
Date/Time
CST
Temp

°C
Wind Pressure Rain
since 9am
mm
Weather Cloud Vis
km
Sea
Height
m
Swell
Dir
 
Speed
knots
Gust
knots
hPa Trend Height
m
Period
s
Dir
31/10:30am 14.0 N 10 15 1018.1 - 0.8 - - - - - - -
31/10:00am 13.1 N 10 14 1018.1 - 0.8 - - - - - - -
31/09:30am 12.7 N 10 16 1018.5 - 0.8 - - - - - - -
31/09:00am 12.3 N 11 16 1018.9 - 0.8 - - - - - - -
31/08:30am 12.2 N 11 16 1019.1 - 0.4 - - - - - - -
31/08:00am 12.2 N 8 11 1019.5 - 0.4 - - - - - - -
31/07:30am 12.3 N 7 9 1019.7 - 0.0 - - - - - - -
31/07:00am 12.3 N 8 9 1019.3 - 0.0 - - - - - - -
31/06:30am 12.2 N 7 9 1019.1 - 0.0 - - - - - - -
31/06:00am 12.2 NNE 8 10 1018.7 - 0.0 - - - - - - -
31/05:30am 12.2 NNE 8 12 1019.0 - 0.0 - - - - - - -
31/05:00am 12.1 NNE 8 10 1018.9 - 0.0 - - - - - - -
31/04:30am 11.9 NNE 8 11 1019.3 - 0.0 - - - - - - -
31/04:00am 11.9 NNE 8 10 1019.5 - 0.0 - - - - - - -
31/03:30am 11.8 NNE 7 8 1020.1 - 0.0 - - - - - - -
31/03:00am 11.8 NNE 6 8 1020.8 - 0.0 - - - - - - -
31/02:30am 11.4 NNE 7 9 1021.1 - 0.0 - - - - - - -
31/02:00am 11.8 NNE 6 6 1021.5 - 0.0 - - - - - - -
31/01:30am 11.7 NE 4 5 1022.3 - 0.0 - - - - - - -
31/01:00am 12.4 CALM 0 0 1022.8 - 0.0 - - - - - - -
31/12:30am 12.7 ENE 4 6 1022.4 - 0.0 - - - - - - -
31/12:00am 12.7 E 5 6 1022.4 - 0.0 - - - - - - -
 
Date/Time
CST
Temp

°C
Wind Pressure Rain
since 9am
mm
Weather Cloud Vis
km
Sea
Height
m
Swell
Dir
 
Speed
knots
Gust
knots
hPa Trend Height
m
Period
s
Dir
30/11:30pm 12.7 ENE 4 5 1022.9 - 0.0 - - - - - - -
30/11:00pm 13.6 E 2 3 1023.4 - 0.0 - - - - - - -
30/10:30pm 13.7 ESE 4 5 1023.6 - 0.0 - - - - - - -
30/10:00pm 13.5 E 4 5 1023.4 - 0.0 - - - - - - -
30/09:30pm 13.5 E 5 6 1023.4 - 0.0 - - - - - - -
30/09:00pm 13.5 E 2 5 1023.9 - 0.0 - - - - - - -
30/08:30pm 13.4 SSE 2 4 1024.1 - 0.0 - - - - - - -
30/08:00pm 13.2 ESE 3 3 1023.9 - 0.0 - - - - - - -
30/07:30pm 13.5 SSE 3 4 1023.7 - 0.0 - - - - - - -
30/07:00pm 14.2 SSE 4 5 1023.3 - 0.0 - - - - - - -
30/06:30pm 14.3 SSE 5 7 1023.1 - 0.0 - - - - - - -
30/06:00pm 15.0 SSE 6 8 1022.8 - 0.0 - - - - - - -
30/05:30pm 15.4 SSE 5 7 1022.5 - 0.0 - - - - - - -
30/05:00pm 16.0 S 7 9 1022.4 - 0.0 - - - - - - -
30/04:30pm 16.2 SSE 7 10 1022.0 - 0.0 Fine Mostly clear 40 - - - -
30/04:00pm 17.5 SSE 6 9 1022.0 - 0.0 - - - - - - -
30/03:30pm 17.2 S 7 11 1022.0 - 0.0 - - - - - - -
30/03:00pm 18.1 S 7 10 1022.3 - 0.0 - - - - - - -
30/02:30pm 18.6 S 7 11 1022.3 - 0.0 - - - - - - -
30/02:00pm 18.9 SSW 8 12 1022.5 - 0.0 - - - - - - -
30/01:30pm 18.5 SSW 8 11 1022.5 - 0.0 - - - - - - -
30/01:00pm 18.6 SSW 9 14 1022.9 - 0.0 - - - - - - -
30/12:30pm 18.8 S 8 11 1023.0 - 0.0 - - - - - - -
30/12:00pm 18.0 SSW 9 13 1023.5 - 0.0 - - - - - - -
30/11:30am 18.3 SSW 9 14 1023.5 - 0.0 - - - - - - -
30/11:00am 18.6 SSW 7 13 1023.4 - 0.0 - - - - - - -
30/10:30am 17.2 SSW 6 7 1023.0 - 0.0 Fine Mostly cloudy 40 - - - -
30/10:00am 16.6 WSW 5 7 1022.9 - 0.0 - - - - - - -
30/09:30am 15.4 W 5 7 1022.5 - 0.0 - - - - - - -
30/09:00am 13.3 WNW 4 5 1022.3 - 0.0 - - - - - - -
30/08:30am 13.1 W 4 5 1021.7 - 0.0 - - - - - - -
30/08:00am 13.0 WSW 5 5 1021.2 - 0.0 - - - - - - -
30/07:30am 12.5 WSW 5 6 1020.7 - 0.0 - - - - - - -
30/07:00am 11.0 W 4 5 1020.2 - 0.0 - - - - - - -
30/06:30am 11.8 W 4 5 1019.8 - 0.0 - - - - - - -
30/06:00am 11.4 WNW 3 5 1019.5 - 0.0 - - - - - - -
30/05:30am 11.4 NNW 5 5 1019.4 - 0.0 - - - - - - -
30/05:00am 11.9 NW 4 5 1019.3 - 0.0 - - - - - - -
30/04:30am 11.4 CALM 0 0 1019.1 - 0.0 - - - - - - -
30/04:00am 11.3 CALM 0 0 1019.1 - 0.0 - - - - - - -
30/03:30am 12.8 N 3 5 1019.2 - 0.0 - - - - - - -
30/03:00am 13.3 CALM 0 0 1019.0 - 0.0 - - - - - - -
30/02:30am 12.8 SW 4 5 1019.5 - 0.0 - - - - - - -
30/02:00am 12.5 NW 1 3 1019.6 - 0.0 - - - - - - -
30/01:30am 12.7 CALM 0 0 1019.3 - 0.0 - - - - - - -
30/01:00am 12.4 CALM 0 0 1019.2 - 0.0 - - - - - - -
30/12:30am 12.5 CALM 0 0 1019.7 - 0.0 - - - - - - -
30/12:00am 13.6 CALM 0 0 1019.8 - 0.0 - - - - - - -
 
Date/Time
CST
Temp

°C
Wind Pressure Rain
since 9am
mm
Weather Cloud Vis
km
Sea
Height
m
Swell
Dir
 
Speed
knots
Gust
knots
hPa Trend Height
m
Period
s
Dir
29/11:30pm 14.4 WSW 5 6 1020.0 - 0.0 - - - - - - -
29/11:00pm 14.1 SW 5 6 1019.9 - 0.0 - - - - - - -
29/10:30pm 14.2 SW 5 6 1020.0 - 0.0 - - - - - - -
29/10:00pm 13.5 SW 5 6 1020.1 - 0.0 - - - - - - -
29/09:30pm 13.8 SSW 4 5 1019.8 - 0.0 - - - - - - -
29/09:00pm 14.7 SW 3 5 1019.7 - 0.0 - - - - - - -
29/08:30pm 15.3 SSW 4 6 1019.4 - 0.0 - - - - - - -
29/08:00pm 15.4 SW 5 6 1019.2 - 0.0 - - - - - - -
29/07:30pm 15.9 SW 7 9 1019.0 - 0.0 - - - - - - -
29/07:00pm 16.7 SW 7 10 1018.8 - 0.0 - - - - - - -
29/06:54pm 16.9 SSW 7 10 1018.7 - 0.0 - - - - - - -
29/06:30pm 21.9 NNW 6 8 1017.9 - 0.0 - - - - - - -
29/06:00pm 23.7 NNW 8 10 1017.4 - 0.0 - - - - - - -
29/05:30pm 24.8 NW 10 16 1017.3 - 0.0 - - - - - - -
29/05:00pm 25.3 NNW 15 20 1017.1 - 0.0 - - - - - - -
29/04:30pm 25.5 NW 15 20 1017.0 - 0.0 Fine Mostly clear 40 - - - -
29/04:00pm 25.6 NNW 16 22 1017.1 - 0.0 - - - - - - -
29/03:49pm 25.5 NNW 15 25 1017.0 - 0.0 - - - - - - -
29/03:30pm 25.5 NNW 17 24 1017.0 - 0.0 - - - - - - -
29/03:00pm 24.8 NW 15 26 1017.1 - 0.0 - - - - - - -
29/02:30pm 24.2 NNW 15 25 1017.7 - 0.0 - - - - - - -
29/02:01pm 24.2 NW 15 25 1018.3 - 0.0 - - - - - - -
29/02:00pm 24.2 NW 15 24 1018.3 - 0.0 - - - - - - -
29/01:30pm 24.1 NNW 17 24 1018.7 - 0.0 - - - - - - -
29/01:05pm 24.4 NNW 15 26 1019.2 - 0.0 - - - - - - -
29/01:00pm 24.1 NNW 15 24 1019.3 - 0.0 - - - - - - -
29/12:37pm 23.3 NNW 17 27 1019.4 - 0.0 - - - - - - -
29/12:30pm 22.7 N 18 26 1019.5 - 0.0 - - - - - - -
29/12:00pm 21.7 N 16 22 1019.9 - 0.0 - - - - - - -
29/11:50am 21.5 N 16 26 1020.2 - 0.0 - - - - - - -
29/11:30am 20.8 N 17 26 1020.7 - 0.0 - - - - - - -
29/11:00am 19.3 N 13 22 1021.0 - 0.0 - - - - - - -
29/10:30am 17.9 N 14 21 1021.3 - 0.0 Fine Mostly cloudy 40 - - - -
29/10:00am 16.2 N 13 19 1021.6 - 0.0 - - - - - - -
29/09:30am 14.8 N 13 18 1021.9 - 0.0 - - - - - - -
29/09:00am 13.6 N 12 17 1022.1 - 0.0 - - - - - - -
29/08:30am 13.1 N 12 16 1022.1 - 0.0 - - - - - - -
29/08:00am 13.0 N 11 16 1022.2 - 0.0 - - - - - - -
29/07:30am 12.8 N 13 17 1022.0 - 0.0 - - - - - - -
29/07:00am 12.7 N 11 17 1022.0 - 0.0 - - - - - - -
29/06:30am 12.6 N 12 17 1022.1 - 0.0 - - - - - - -
29/06:00am 12.5 N 11 15 1022.3 - 0.0 - - - - - - -
29/05:30am 12.6 N 12 17 1022.2 - 0.0 - - - - - - -
29/05:00am 12.5 N 13 17 1022.2 - 0.0 - - - - - - -
29/04:30am 12.8 N 13 18 1022.5 - 0.0 - - - - - - -
29/04:00am 13.0 N 16 23 1022.0 - 0.0 - - - - - - -
29/03:30am 14.1 N 13 20 1022.2 - 0.0 - - - - - - -
29/03:00am 13.7 N 15 21 1021.8 - 0.0 - - - - - - -
29/02:30am 13.4 N 16 22 1022.3 - 0.0 - - - - - - -
29/02:00am 13.2 N 15 21 1023.0 - 0.0 - - - - - - -
29/01:30am 13.2 NNE 13 18 1023.3 - 0.0 - - - - - - -
29/01:00am 13.3 N 13 19 1024.1 - 0.0 - - - - - - -
29/12:30am 13.1 NNE 12 18 1024.0 - 0.0 - - - - - - -
29/12:00am 13.0 NNE 12 18 1024.5 - 0.0 - - - - - - -
 
Date/Time
CST
Temp

°C
Wind Pressure Rain
since 9am
mm
Weather Cloud Vis
km
Sea
Height
m
Swell
Dir
 
Speed
knots
Gust
knots
hPa Trend Height
m
Period
s
Dir
28/11:30pm 12.6 NNE 12 17 1024.2 - 0.0 - - - - - - -
28/11:00pm 13.0 NNE 11 16 1024.9 - 0.0 - - - - - - -
28/10:30pm 12.8 NNE 10 14 1025.0 - 0.0 - - - - - - -
28/10:00pm 13.1 NNE 9 14 1026.0 - 0.0 - - - - - - -
28/09:30pm 13.3 NNE 6 9 1026.5 - 0.0 - - - - - - -
28/09:00pm 13.8 NNE 8 12 1026.3 - 0.0 - - - - - - -
28/08:30pm 13.9 NE 11 16 1025.5 - 0.0 - - - - - - -
28/08:00pm 13.8 NE 10 16 1025.5 - 0.0 - - - - - - -
28/07:30pm 13.9 NNE 8 13 1025.9 - 0.0 - - - - - - -
28/07:00pm 14.1 NNE 8 10 1025.9 - 0.0 - - - - - - -
28/06:30pm 14.3 NE 6 8 1026.1 - 0.0 - - - - - - -
28/06:00pm 15.1 NNE 7 10 1026.2 - 0.0 - - - - - - -
28/05:30pm 16.0 NNE 9 12 1026.3 - 0.0 - - - - - - -
28/05:00pm 16.4 NNE 8 12 1026.9 - 0.0 - - - - - - -
28/04:30pm 16.7 NNE 9 14 1027.1 - 0.0 Fine Mostly cloudy 40 - - - -
28/04:00pm 17.1 NNE 9 14 1027.8 - 0.0 - - - - - - -
28/03:30pm 16.7 NNE 8 14 1028.2 - 0.0 - - - - - - -
28/03:00pm 16.3 NNE 9 14 1028.4 - 0.0 - - - - - - -
28/02:30pm 16.9 N 9 15 1029.2 - 0.0 - - - - - - -
28/02:00pm 17.2 N 9 14 1029.4 - 0.0 - - - - - - -
28/01:30pm 17.5 N 11 20 1030.5 - 0.0 - - - - - - -
28/01:00pm 16.3 N 11 18 1031.4 - 0.0 - - - - - - -
28/12:30pm 14.9 N 11 18 1032.0 - 0.0 - - - - - - -

Other Formats:

Comma delimited format used in spreadsheet applications
http://www.bom.gov.au/fwo/IDS60701/IDS60701.94647.axf

JavaScript Object Notation format (JSON) in row-major order
http://www.bom.gov.au/fwo/IDS60701/IDS60701.94647.json